Time;durP1;ratioP1;P1;durP2;ratioP2;P2;SDS_P1;SDS_P2;PMS_P1;PMS_P2;Temp;Humidity;BMP_temperature;BMP_pressure;BME280_temperature;BME280_humidity;BME280_pressure;Samples;Min_cycle;Max_cycle;Signal;HPM_P1;HPM_P2
2022/04/06 00:02:19;;;;;;;24.60;17.90;;;;;;;6.02;66.31;96823.63;110112;1247;70735;-62
2022/04/06 00:04:49;;;;;;;18.70;13.90;;;;;;;6.02;65.12;96825.67;110103;1245;69175;-62
2022/04/06 00:07:18;;;;;;;;;;;;;;;6.02;65.09;96832.08;110125;1247;68693;-61
2022/04/06 00:09:49;;;;;;;17.70;14.80;;;;;;;6.02;64.70;96836.41;110071;1247;59725;-61
2022/04/06 00:12:20;;;;;;;21.30;15.30;;;;;;;6.02;64.15;96837.11;110123;1246;59668;-62
2022/04/06 00:14:51;;;;;;;17.80;14.20;;;;;;;6.02;63.68;96838.15;110145;1247;70761;-61
2022/04/06 00:17:21;;;;;;;19.90;15.00;;;;;;;6.02;63.78;96835.88;110084;1246;69231;-63
2022/04/06 00:19:52;;;;;;;26.00;19.60;;;;;;;6.03;62.52;96834.75;110089;1247;69213;-62
2022/04/06 00:22:22;;;;;;;27.40;20.30;;;;;;;6.03;62.82;96833.73;110089;1247;59742;-62
2022/04/06 00:24:54;;;;;;;24.00;17.20;;;;;;;5.99;63.53;96833.80;110057;1247;59692;-62
2022/04/06 00:27:23;;;;;;;22.60;16.00;;;;;;;5.96;63.36;96839.40;110119;1247;70761;-62
2022/04/06 00:29:53;;;;;;;24.30;16.50;;;;;;;5.92;65.89;96843.23;110117;1247;68427;-62
2022/04/06 00:32:23;;;;;;;;;;;;;;;5.90;66.51;96846.27;110095;1247;67617;-62
2022/04/06 00:37:42;;;;;;;25.50;19.00;;;;;;;5.89;68.02;96847.05;110010;1247;60129;-63
2022/04/06 00:40:12;;;;;;;;;;;;;;;5.89;68.30;96846.88;110080;1247;70829;-63
2022/04/06 00:42:43;;;;;;;17.30;13.50;;;;;;;5.89;65.05;96848.61;110045;1247;68873;-63
2022/04/06 00:45:15;;;;;;;15.80;10.30;;;;;;;5.89;64.28;96848.98;109847;1247;68598;-62
2022/04/06 00:47:45;;;;;;;21.70;15.80;;;;;;;5.88;65.53;96850.55;110060;1247;59668;-63
2022/04/06 00:50:17;;;;;;;24.10;16.90;;;;;;;5.89;66.79;96849.83;110026;1247;59622;-63
2022/04/06 00:52:55;;;;;;;24.00;16.40;;;;;;;5.88;66.70;96848.52;110049;1247;71545;-63
2022/04/06 00:55:30;;;;;;;23.20;17.00;;;;;;;5.87;66.63;96844.77;109990;1248;69038;-61
2022/04/06 00:58:01;;;;;;;22.80;17.60;;;;;;;5.83;67.62;96840.65;110031;1247;68279;-61
2022/04/06 01:00:32;;;;;;;21.30;16.40;;;;;;;5.84;67.28;96840.96;110061;1247;59633;-64
2022/04/06 01:03:02;;;;;;;20.60;16.80;;;;;;;5.83;68.03;96842.06;110102;1247;59763;-61
2022/04/06 01:05:32;;;;;;;22.00;16.20;;;;;;;5.85;68.06;96841.23;110030;1247;70736;-61
2022/04/06 01:08:03;;;;;;;21.90;15.80;;;;;;;5.86;67.52;96836.34;110014;1247;68480;-61
2022/04/06 01:10:33;;;;;;;18.30;14.10;;;;;;;5.86;67.69;96832.02;110049;1247;68452;-63
2022/04/06 01:13:03;;;;;;;16.60;13.30;;;;;;;5.86;67.57;96829.56;110094;1247;59744;-64
2022/04/06 01:15:34;;;;;;;19.40;14.70;;;;;;;5.88;66.93;96830.71;110033;1246;59746;-63
2022/04/06 01:18:04;;;;;;;;;;;;;;;5.88;66.60;96833.62;109893;1247;71448;-62
2022/04/06 01:20:35;;;;;;;17.90;13.10;;;;;;;5.88;66.64;96836.73;110089;1247;69375;-62
2022/04/06 01:23:05;;;;;;;;;;;;;;;5.88;66.37;96838.27;110067;1247;69308;-61
2022/04/06 01:25:38;;;;;;;13.10;9.70;;;;;;;5.88;66.55;96846.59;110148;1248;59666;-62
2022/04/06 01:28:08;;;;;;;13.60;10.70;;;;;;;5.88;66.48;96849.52;109834;1247;59787;-61
2022/04/06 01:30:38;;;;;;;;;;;;;;;5.90;65.95;96844.60;109845;1249;71510;-63
2022/04/06 01:33:08;;;;;;;16.00;12.20;;;;;;;5.89;66.10;96848.63;110107;1247;69298;-63
2022/04/06 01:35:41;;;;;;;16.70;10.50;;;;;;;5.89;65.95;96854.98;109980;1247;68791;-62
2022/04/06 01:38:12;;;;;;;19.40;15.20;;;;;;;5.90;64.64;96850.28;110064;1247;59726;-61
2022/04/06 01:40:43;;;;;;;22.20;17.20;;;;;;;5.89;64.03;96852.41;110064;1247;59655;-61
2022/04/06 01:43:14;;;;;;;25.40;19.40;;;;;;;5.86;67.37;96856.54;110064;1247;71515;-61
2022/04/06 01:45:44;;;;;;;22.90;16.20;;;;;;;5.84;66.08;96856.14;110038;1248;69226;-62
2022/04/06 01:48:17;;;;;;;23.70;17.70;;;;;;;5.83;64.82;96861.44;110079;1247;69407;-64
2022/04/06 01:53:35;;;;;;;36.00;25.90;;;;;;;5.74;65.83;96859.08;110037;1247;59744;-63
2022/04/06 01:56:05;;;;;;;31.70;25.70;;;;;;;5.69;66.55;96859.03;110096;1247;71343;-61
2022/04/06 01:58:36;;;;;;;23.80;17.50;;;;;;;5.63;66.78;96857.15;109926;1249;69351;-63
2022/04/06 02:01:07;;;;;;;26.30;20.10;;;;;;;5.57;67.15;96857.14;110077;1247;69541;-61
2022/04/06 02:03:37;;;;;;;;;;;;;;;5.53;67.96;96863.27;110153;1247;60208;-65
2022/04/06 02:06:07;;;;;;;21.70;16.20;;;;;;;5.46;70.60;96868.02;110051;1247;59684;-64
2022/04/06 02:08:37;;;;;;;21.70;17.00;;;;;;;5.45;67.95;96862.38;110113;1247;71573;-66
2022/04/06 02:11:07;;;;;;;;;;;;;;;5.43;67.61;96864.79;109865;1247;69220;-61
2022/04/06 02:13:39;;;;;;;25.40;17.70;;;;;;;5.40;67.88;96873.59;110061;1247;68736;-61
2022/04/06 02:16:09;;;;;;;21.60;16.90;;;;;;;5.37;69.17;96874.30;110027;1247;59733;-62
2022/04/06 02:18:39;;;;;;;21.10;15.90;;;;;;;5.36;70.57;96876.41;110106;1247;59738;-62
2022/04/06 02:21:09;;;;;;;;;;;;;;;5.38;68.37;96880.13;110118;1247;72026;-63
2022/04/06 02:23:39;;;;;;;20.70;14.10;;;;;;;5.38;68.78;96882.73;110106;1246;67504;-63
2022/04/06 02:26:09;;;;;;;18.20;13.90;;;;;;;5.39;69.98;96884.58;110129;1247;69393;-61
2022/04/06 02:28:38;;;;;;;20.30;15.40;;;;;;;5.39;70.54;96882.16;109934;1247;59680;-62
2022/04/06 02:31:08;;;;;;;17.20;13.10;;;;;;;5.37;69.89;96885.00;109871;1246;59657;-62
2022/04/06 02:33:39;;;;;;;19.20;14.90;;;;;;;5.37;70.15;96885.70;109890;1249;71473;-62
2022/04/06 02:36:10;;;;;;;17.30;12.30;;;;;;;5.38;69.39;96885.11;109963;1247;69359;-62
2022/04/06 02:38:40;;;;;;;16.80;12.10;;;;;;;5.40;69.25;96883.27;109967;1248;69332;-62
2022/04/06 02:41:09;;;;;;;16.20;13.60;;;;;;;5.44;68.75;96886.48;110005;1247;59703;-62
2022/04/06 02:43:40;;;;;;;17.10;13.60;;;;;;;5.46;69.38;96884.08;110032;1248;59884;-64
2022/04/06 02:46:10;;;;;;;15.90;12.90;;;;;;;5.49;68.04;96887.01;110041;1248;70496;-62
2022/04/06 02:48:41;;;;;;;14.60;11.10;;;;;;;5.52;67.78;96890.66;110020;1247;69383;-66
2022/04/06 02:51:12;;;;;;;15.40;12.50;;;;;;;5.54;67.71;96884.48;110014;1248;68516;-62
2022/04/06 02:53:42;;;;;;;13.00;11.20;;;;;;;5.57;67.12;96882.38;110038;1247;59698;-63
2022/04/06 02:56:14;;;;;;;14.40;11.10;;;;;;;5.60;67.48;96883.38;110060;1247;59666;-64
2022/04/06 02:58:45;;;;;;;12.60;10.00;;;;;;;5.64;67.35;96890.92;110015;1247;70738;-63
2022/04/06 03:01:14;;;;;;;10.60;8.60;;;;;;;5.67;67.01;96885.61;110006;1247;69393;-63
2022/04/06 03:03:45;;;;;;;13.80;11.20;;;;;;;5.69;66.23;96888.07;109985;1247;69677;-62
2022/04/06 03:06:16;;;;;;;12.10;8.60;;;;;;;5.71;65.98;96890.37;110029;1247;59757;-62
2022/04/06 03:08:47;;;;;;;12.60;10.30;;;;;;;5.72;65.77;96887.84;110045;1248;59662;-65
2022/04/06 03:11:17;;;;;;;11.80;9.70;;;;;;;5.73;65.60;96885.91;110057;1247;70608;-63
2022/04/06 03:13:47;;;;;;;14.70;11.60;;;;;;;5.75;66.04;96889.98;109996;1247;67872;-63
2022/04/06 03:16:17;;;;;;;13.40;9.50;;;;;;;5.75;67.67;96893.43;109968;1247;69791;-62
2022/04/06 03:18:48;;;;;;;14.20;11.70;;;;;;;5.77;66.64;96891.38;109816;1249;59761;-65
2022/04/06 03:21:19;;;;;;;13.80;11.30;;;;;;;5.78;67.79;96893.73;110021;1247;59735;-63
2022/04/06 03:23:48;;;;;;;15.50;11.10;;;;;;;5.77;67.47;96892.56;109838;1249;72377;-60
2022/04/06 03:26:18;;;;;;;11.30;9.40;;;;;;;5.78;67.14;96894.61;109929;1249;69317;-63
2022/04/06 03:28:47;;;;;;;14.20;11.80;;;;;;;5.78;66.76;96897.03;109885;1247;69302;-63
2022/04/06 03:31:17;;;;;;;14.00;11.50;;;;;;;5.77;67.76;96898.50;110103;1247;59751;-63
2022/04/06 03:33:47;;;;;;;18.20;14.50;;;;;;;5.75;68.50;96903.93;109960;1248;59628;-63
2022/04/06 03:36:16;;;;;;;16.60;12.00;;;;;;;5.74;67.21;96898.52;109982;1248;70980;-62
2022/04/06 03:38:46;;;;;;;17.50;12.50;;;;;;;5.73;68.17;96900.61;109990;1248;69440;-63
2022/04/06 03:41:20;;;;;;;15.40;12.00;;;;;;;5.74;68.46;96901.28;110004;1247;69274;-64
2022/04/06 03:43:55;;;;;;;13.20;9.90;;;;;;;5.73;68.13;96903.55;109898;1247;60182;-63
2022/04/06 03:46:25;;;;;;;12.90;10.30;;;;;;;5.74;68.18;96907.64;109984;1247;59670;-63
2022/04/06 03:48:55;;;;;;;17.00;12.80;;;;;;;5.75;68.27;96907.04;109816;1248;70560;-61
2022/04/06 03:51:25;;;;;;;27.30;17.20;;;;;;;5.75;68.25;96903.95;110016;1247;68455;-62
2022/04/06 03:53:55;;;;;;;20.80;14.00;;;;;;;5.75;67.28;96907.42;110007;1247;69602;-63
2022/04/06 03:56:24;;;;;;;16.00;11.10;;;;;;;5.73;67.17;96905.95;109940;1248;59712;-62
2022/04/06 03:58:53;;;;;;;20.60;14.20;;;;;;;5.72;68.33;96906.38;109789;1249;59710;-62
2022/04/06 04:01:23;;;;;;;24.80;16.50;;;;;;;5.70;70.36;96905.98;109959;1247;71366;-61
2022/04/06 04:03:53;;;;;;;24.30;16.10;;;;;;;5.67;70.48;96906.71;109947;1248;69196;-62
2022/04/06 04:06:22;;;;;;;32.80;21.70;;;;;;;5.65;70.37;96914.09;109921;1249;69256;-63
2022/04/06 04:08:51;;;;;;;26.90;20.50;;;;;;;5.63;70.36;96918.67;109974;1248;59667;-62
2022/04/06 04:11:21;;;;;;;24.00;16.90;;;;;;;5.62;70.74;96916.85;109936;1248;59621;-62
2022/04/06 04:13:50;;;;;;;19.10;13.50;;;;;;;5.60;70.42;96923.67;109816;1248;71385;-61
2022/04/06 04:16:20;;;;;;;18.30;13.20;;;;;;;5.59;70.42;96923.75;109974;1248;69398;-61
2022/04/06 04:18:50;;;;;;;16.50;12.70;;;;;;;5.61;69.56;96925.72;109811;1249;68760;-64
2022/04/06 04:21:34;;;;;;;15.80;12.00;;;;;;;5.62;69.10;96928.75;109986;1249;59753;-65
2022/04/06 04:24:08;;;;;;;15.40;11.30;;;;;;;5.65;68.74;96926.85;109851;1249;59722;-62
2022/04/06 04:26:39;;;;;;;16.30;11.80;;;;;;;5.68;68.32;96929.27;109916;1249;72942;-63
2022/04/06 04:29:09;;;;;;;16.90;12.50;;;;;;;5.68;68.70;96926.49;109893;1249;69480;-64
2022/04/06 04:31:39;;;;;;;14.90;11.90;;;;;;;5.70;68.75;96934.03;109898;1247;68836;-65
2022/04/06 04:34:08;;;;;;;13.50;11.10;;;;;;;5.73;68.18;96937.98;110014;1246;59694;-62
2022/04/06 04:36:38;;;;;;;13.10;10.90;;;;;;;5.75;68.30;96939.20;110028;1246;59742;-62
2022/04/06 04:39:07;;;;;;;11.80;9.30;;;;;;;5.79;67.47;96941.20;110078;1247;71520;-64
2022/04/06 04:41:37;;;;;;;11.90;10.00;;;;;;;5.84;67.69;96947.84;110039;1247;68563;-61
2022/04/06 04:44:07;;;;;;;12.80;9.70;;;;;;;5.89;67.26;96952.02;109961;1249;69280;-64
2022/04/06 04:46:37;;;;;;;11.40;9.10;;;;;;;5.94;67.27;96952.10;110038;1247;59745;-62
2022/04/06 04:49:06;;;;;;;14.00;9.30;;;;;;;5.99;67.64;96954.35;110070;1247;59662;-61
2022/04/06 04:51:36;;;;;;;12.00;8.90;;;;;;;6.05;66.87;96956.77;109872;1249;70986;-61
2022/04/06 04:54:06;;;;;;;9.50;7.00;;;;;;;6.10;65.75;96958.85;110079;1246;67524;-61
2022/04/06 04:56:35;;;;;;;10.30;8.60;;;;;;;6.18;65.84;96964.11;110036;1247;69479;-66
2022/04/06 04:59:04;;;;;;;12.40;10.20;;;;;;;6.24;66.34;96965.98;110081;1247;59744;-63
2022/04/06 05:01:34;;;;;;;12.80;10.00;;;;;;;6.30;66.32;96968.00;110041;1247;60043;-62
2022/04/06 05:04:04;;;;;;;9.80;8.60;;;;;;;6.37;66.35;96975.19;110107;1247;70808;-61
2022/04/06 05:06:36;;;;;;;9.30;7.50;;;;;;;6.44;65.77;96978.58;110075;1247;68526;-61
2022/04/06 05:09:05;;;;;;;13.40;9.90;;;;;;;6.52;65.62;96981.38;110085;1247;68647;-60
2022/04/06 05:11:34;;;;;;;12.40;10.00;;;;;;;6.58;66.27;96987.34;110035;1247;59802;-63
2022/04/06 05:14:04;;;;;;;;;;;;;;;6.70;66.81;96995.44;110091;1247;59752;-63
2022/04/06 05:16:34;;;;;;;16.90;11.10;;;;;;;6.78;65.37;96992.36;110062;1247;71411;-65
2022/04/06 05:19:04;;;;;;;16.40;12.10;;;;;;;6.86;65.83;96993.41;110089;1247;68704;-61
2022/04/06 05:21:33;;;;;;;20.90;14.20;;;;;;;6.94;66.98;96996.89;109936;1247;68785;-67
2022/04/06 05:24:04;;;;;;;14.70;12.10;;;;;;;7.02;67.54;96999.23;109961;1247;59724;-63
2022/04/06 05:26:40;;;;;;;19.40;14.90;;;;;;;7.10;65.30;96997.55;110111;1247;59719;-63
2022/04/06 05:29:10;;;;;;;24.50;17.10;;;;;;;7.13;65.39;97000.44;110149;1247;70939;-62
2022/04/06 05:31:39;;;;;;;28.50;20.30;;;;;;;7.16;65.86;97003.58;110076;1247;68648;-61
2022/04/06 05:34:08;;;;;;;22.40;15.80;;;;;;;7.18;65.47;97002.77;110093;1247;69528;-67
2022/04/06 05:36:38;;;;;;;19.00;14.50;;;;;;;7.24;64.99;97002.55;110058;1247;59696;-61
2022/04/06 05:39:08;;;;;;;16.40;13.90;;;;;;;7.33;63.84;97001.23;110059;1247;59778;-62
2022/04/06 05:41:37;;;;;;;18.20;13.90;;;;;;;7.41;63.03;97011.10;110065;1247;70853;-61
2022/04/06 05:44:07;;;;;;;17.80;12.30;;;;;;;7.51;62.95;97012.89;110102;1247;69503;-62
2022/04/06 05:46:36;;;;;;;16.50;10.60;;;;;;;7.64;62.93;97010.98;109920;1247;68802;-61
2022/04/06 05:49:05;;;;;;;13.50;10.50;;;;;;;7.73;61.38;97015.23;110020;1247;59687;-64
2022/04/06 05:51:35;;;;;;;9.30;7.10;;;;;;;7.83;61.28;97016.76;110078;1247;59712;-62
2022/04/06 05:54:05;;;;;;;10.00;8.00;;;;;;;7.95;61.37;97012.87;110062;1247;71610;-62
2022/04/06 05:56:34;;;;;;;13.90;11.60;;;;;;;8.05;61.07;97016.80;110118;1247;69461;-62
2022/04/06 05:59:04;;;;;;;14.20;10.40;;;;;;;8.13;59.48;97018.70;109891;1249;69900;-70
2022/04/06 06:01:33;;;;;;;15.80;10.90;;;;;;;8.24;60.42;97018.48;109996;1247;59759;-67
2022/04/06 06:04:03;;;;;;;14.10;11.80;;;;;;;8.33;58.66;97027.92;109946;1247;59689;-70
2022/04/06 06:06:32;;;;;;;17.80;14.60;;;;;;;8.44;57.92;97028.88;109984;1248;71053;-68
2022/04/06 06:09:01;;;;;;;19.60;13.20;;;;;;;8.55;57.20;97029.02;110064;1247;68800;-62
2022/04/06 06:11:30;;;;;;;17.00;12.70;;;;;;;8.69;57.75;97028.90;110105;1247;69437;-61
2022/04/06 06:14:03;;;;;;;15.40;12.00;;;;;;;8.83;56.45;97033.98;110038;1247;59772;-64
2022/04/06 06:16:32;;;;;;;11.80;9.30;;;;;;;8.97;56.01;97032.26;110024;1247;59627;-63
2022/04/06 06:19:01;;;;;;;13.10;9.30;;;;;;;9.12;57.71;97020.92;109887;1249;71569;-66
2022/04/06 06:21:32;;;;;;;14.40;11.10;;;;;;;9.21;55.02;97026.17;109944;1247;69078;-61
2022/04/06 06:24:05;;;;;;;14.50;11.20;;;;;;;9.29;53.59;97029.39;110087;1247;68420;-65
2022/04/06 06:26:39;;;;;;;10.90;9.20;;;;;;;9.38;53.23;97025.75;109526;1247;689842;-63
2022/04/06 06:29:09;;;;;;;13.30;10.60;;;;;;;9.59;54.77;97029.26;110012;1249;59782;-61
2022/04/06 06:31:38;;;;;;;16.90;12.30;;;;;;;9.75;52.29;97029.98;109933;1249;71753;-66
2022/04/06 06:34:07;;;;;;;14.10;10.30;;;;;;;9.83;51.15;97031.31;109933;1247;69399;-63
2022/04/06 06:36:36;;;;;;;10.80;8.90;;;;;;;10.00;52.96;97023.85;109964;1249;68929;-62
2022/04/06 06:39:06;;;;;;;12.50;10.30;;;;;;;10.08;49.71;97022.95;110062;1247;59745;-63
2022/04/06 06:41:36;;;;;;;11.40;8.30;;;;;;;10.32;52.61;97018.09;110095;1247;59689;-61
2022/04/06 06:44:06;;;;;;;10.10;7.60;;;;;;;10.80;53.09;97022.73;110009;1247;71389;-62
2022/04/06 06:46:35;;;;;;;16.10;10.10;;;;;;;11.35;51.03;97023.34;110099;1247;69428;-64
2022/04/06 06:49:05;;;;;;;9.90;8.10;;;;;;;11.74;48.22;97023.42;110031;1247;68636;-61
2022/04/06 06:51:34;;;;;;;13.30;9.40;;;;;;;11.97;48.38;97028.99;110028;1249;59748;-62
2022/04/06 06:54:04;;;;;;;13.50;9.10;;;;;;;12.26;44.50;97029.38;110023;1249;59663;-67
2022/04/06 06:56:33;;;;;;;11.10;7.60;;;;;;;12.33;44.91;97025.80;110086;1247;71690;-65
2022/04/06 06:59:02;;;;;;;9.30;7.10;;;;;;;12.49;43.98;97028.61;110099;1247;68624;-66
2022/04/06 07:01:32;;;;;;;11.70;8.10;;;;;;;12.62;43.08;97023.28;110043;1247;69746;-64
2022/04/06 07:04:01;;;;;;;12.40;7.20;;;;;;;12.47;41.53;97025.57;110065;1247;59749;-66
2022/04/06 07:06:30;;;;;;;10.80;7.80;;;;;;;12.49;42.70;97025.58;110095;1247;59686;-64
2022/04/06 07:08:59;;;;;;;11.70;7.70;;;;;;;12.50;41.19;97029.04;110021;1247;70785;-64
2022/04/06 07:11:28;;;;;;;9.60;6.70;;;;;;;12.49;40.86;97036.25;110143;1247;69488;-64
2022/04/06 07:13:57;;;;;;;8.70;6.80;;;;;;;12.87;41.12;97033.14;110073;1247;69594;-63
2022/04/06 07:16:27;;;;;;;9.50;8.00;;;;;;;13.13;39.71;97033.13;110085;1247;59720;-63
2022/04/06 07:18:56;;;;;;;8.60;5.90;;;;;;;13.37;39.19;97031.85;110072;1247;59751;-65
2022/04/06 07:21:26;;;;;;;8.90;7.10;;;;;;;13.70;38.30;97029.06;109997;1249;70807;-64
2022/04/06 07:23:56;;;;;;;10.60;7.90;;;;;;;13.93;38.34;97027.75;110088;1247;69418;-64
2022/04/06 07:26:25;;;;;;;10.30;7.30;;;;;;;14.14;38.21;97025.99;110038;1249;69487;-63
2022/04/06 07:28:54;;;;;;;11.20;8.30;;;;;;;14.50;37.13;97028.05;109986;1248;59730;-63
2022/04/06 07:31:23;;;;;;;8.90;6.90;;;;;;;14.88;36.87;97030.59;110080;1247;59705;-63
2022/04/06 07:33:53;;;;;;;10.90;7.70;;;;;;;15.39;36.68;97033.55;109996;1247;71762;-66
2022/04/06 07:36:22;;;;;;;10.30;7.80;;;;;;;15.43;34.66;97031.94;109788;1248;68532;-62
2022/04/06 07:38:52;;;;;;;10.00;8.10;;;;;;;15.47;34.15;97031.54;110055;1247;69442;-62
2022/04/06 07:41:24;;;;;;;8.30;6.60;;;;;;;15.60;34.10;97038.15;110047;1247;60076;-69
2022/04/06 07:43:54;;;;;;;10.60;7.90;;;;;;;15.61;34.44;97036.32;110033;1247;59650;-68
2022/04/06 07:46:23;;;;;;;10.40;7.40;;;;;;;15.83;34.11;97038.66;110064;1247;70545;-62
2022/04/06 07:48:52;;;;;;;9.70;8.10;;;;;;;15.75;33.96;97041.20;110044;1247;68531;-70
2022/04/06 07:51:22;;;;;;;8.40;5.80;;;;;;;15.73;34.38;97042.66;110030;1248;69416;-70
2022/04/06 07:53:51;;;;;;;9.80;7.90;;;;;;;15.84;34.07;97045.80;110023;1246;59699;-69
2022/04/06 07:56:20;;;;;;;11.80;8.80;;;;;;;16.13;33.94;97046.73;110112;1247;59697;-70
2022/04/06 07:58:49;;;;;;;11.70;8.20;;;;;;;16.18;33.50;97051.82;110058;1247;70884;-62
2022/04/06 08:01:19;;;;;;;10.60;8.40;;;;;;;16.31;33.94;97051.40;110052;1247;68907;-63
2022/04/06 08:03:48;;;;;;;10.10;7.70;;;;;;;16.24;33.61;97053.66;109910;1247;69433;-67
2022/04/06 08:06:18;;;;;;;8.00;6.50;;;;;;;16.44;33.88;97051.89;110098;1247;59744;-71
2022/04/06 08:08:51;;;;;;;11.00;7.90;;;;;;;16.37;33.81;97060.27;109920;1247;59640;-68
2022/04/06 08:11:20;;;;;;;10.40;7.30;;;;;;;16.02;34.31;97060.11;110091;1247;70067;-65
2022/04/06 08:13:49;;;;;;;10.80;8.60;;;;;;;15.82;34.77;97060.22;110093;1247;69504;-69
2022/04/06 08:16:19;;;;;;;12.00;8.60;;;;;;;16.05;34.28;97056.85;110103;1247;68761;-70
2022/04/06 08:18:48;;;;;;;9.00;7.40;;;;;;;16.09;34.39;97058.75;110053;1246;59780;-65
2022/04/06 08:21:18;;;;;;;10.50;7.20;;;;;;;16.65;34.44;97055.54;110010;1248;59797;-65
2022/04/06 08:23:47;;;;;;;10.40;8.40;;;;;;;17.31;33.54;97059.76;109899;1249;70886;-63
2022/04/06 08:26:17;;;;;;;9.50;7.70;;;;;;;17.43;32.42;97056.54;110131;1247;68719;-71
2022/04/06 08:28:47;;;;;;;9.80;7.20;;;;;;;16.90;33.23;97058.01;110049;1247;69409;-65
2022/04/06 08:31:17;;;;;;;8.90;7.40;;;;;;;17.42;33.33;97056.10;110088;1246;59754;-68
2022/04/06 08:33:46;;;;;;;10.00;8.00;;;;;;;17.90;32.14;97050.09;110093;1247;59684;-68
2022/04/06 08:36:16;;;;;;;10.10;8.50;;;;;;;17.75;32.18;97048.66;110017;1250;71628;-66
2022/04/06 08:38:46;;;;;;;9.40;7.60;;;;;;;17.89;32.15;97050.73;109970;1250;69444;-62
2022/04/06 08:41:16;;;;;;;10.70;7.20;;;;;;;18.24;31.75;97048.10;110000;1247;68657;-68
2022/04/06 08:43:46;;;;;;;10.00;8.00;;;;;;;18.45;31.24;97050.06;110008;1247;59740;-63
2022/04/06 08:46:17;;;;;;;10.00;8.00;;;;;;;18.54;31.02;97050.06;110065;1247;59644;-66
2022/04/06 08:48:54;;;;;;;9.80;7.70;;;;;;;18.68;30.56;97046.95;110050;1249;71567;-66
2022/04/06 08:51:23;;;;;;;8.70;6.40;;;;;;;19.10;30.68;97040.17;110043;1247;68981;-64
2022/04/06 08:53:53;;;;;;;8.90;7.20;;;;;;;19.66;30.13;97043.79;109934;1249;69527;-68
2022/04/06 08:56:22;;;;;;;8.60;6.60;;;;;;;19.62;29.06;97041.16;110031;1250;59686;-64
2022/04/06 08:58:51;;;;;;;8.00;6.30;;;;;;;19.27;29.55;97035.76;110063;1247;59682;-67
2022/04/06 09:01:21;;;;;;;;;;;;;;;19.75;29.41;97034.77;110043;1249;71317;-68
2022/04/06 09:03:50;;;;;;;7.40;5.90;;;;;;;19.32;30.19;97032.19;109880;1249;69979;-67
2022/04/06 09:06:19;;;;;;;7.50;6.00;;;;;;;19.60;29.68;97037.02;110007;1248;68668;-67
2022/04/06 09:08:49;;;;;;;;;;;;;;;19.93;29.29;97037.80;110039;1247;59627;-68
2022/04/06 09:11:23;;;;;;;10.50;7.90;;;;;;;20.29;29.45;97034.00;110022;1247;59760;-68
2022/04/06 09:14:00;;;;;;;6.70;4.50;;;;;;;21.18;28.03;97026.83;110058;1248;71749;-65
2022/04/06 09:16:34;;;;;;;5.50;4.20;;;;;;;21.53;27.36;97027.91;110013;1249;68790;-64
2022/04/06 09:19:07;;;;;;;6.70;4.70;;;;;;;21.61;26.84;97031.99;110061;1247;69531;-65
2022/04/06 09:21:42;;;;;;;4.00;2.90;;;;;;;21.85;25.97;97029.39;110110;1247;59758;-70
2022/04/06 09:24:19;;;;;;;3.90;2.90;;;;;;;21.44;26.49;97030.06;110136;1247;59767;-69
2022/04/06 09:27:03;;;;;;;4.90;3.30;;;;;;;20.90;26.56;97031.64;110092;1247;71251;-70
2022/04/06 09:29:35;;;;;;;5.50;3.80;;;;;;;21.17;27.34;97024.27;110106;1247;69516;-67
2022/04/06 09:32:10;;;;;;;3.70;3.20;;;;;;;21.74;27.29;97019.59;110080;1249;70078;-65
2022/04/06 09:34:59;;;;;;;4.50;3.70;;;;;;;20.97;26.82;97016.78;109860;1248;59742;-69
2022/04/06 09:37:32;;;;;;;6.30;4.20;;;;;;;20.95;27.09;97015.31;109833;1249;59668;-71
2022/04/06 09:40:08;;;;;;;5.00;4.30;;;;;;;21.93;26.35;97015.63;110107;1247;70754;-71
2022/04/06 09:42:38;;;;;;;4.60;3.70;;;;;;;22.11;26.14;97018.65;110079;1247;68629;-66
2022/04/06 09:47:58;;;;;;;4.80;3.00;;;;;;;21.40;26.88;97008.89;110024;1247;59757;-67
2022/04/06 09:50:28;;;;;;;5.00;3.90;;;;;;;22.08;26.30;97010.63;110041;1249;59669;-69
2022/04/06 09:52:57;;;;;;;;;;;;;;;22.18;26.38;97011.55;110085;1247;71704;-64
2022/04/06 09:55:26;;;;;;;5.60;4.80;;;;;;;23.29;25.48;97006.64;110093;1247;69075;-71
2022/04/06 09:57:58;;;;;;;;;;;;;;;23.38;24.97;97003.05;109980;1249;68746;-71
2022/04/06 10:00:29;;;;;;;4.80;3.50;;;;;;;23.45;24.87;97000.86;110056;1248;59683;-70
2022/04/06 10:03:07;;;;;;;5.30;4.20;;;;;;;22.73;24.68;96995.80;110057;1250;59758;-71
2022/04/06 10:05:42;;;;;;;4.20;3.80;;;;;;;22.76;25.27;96991.14;109830;1249;70018;-68
2022/04/06 10:08:11;;;;;;;5.30;4.40;;;;;;;22.58;25.34;96983.39;110011;1247;68916;-70
2022/04/06 10:10:41;;;;;;;4.50;3.70;;;;;;;22.95;26.29;96983.61;109997;1247;69250;-68
2022/04/06 10:13:11;;;;;;;4.00;3.60;;;;;;;23.09;25.96;96979.97;110092;1248;59732;-66
2022/04/06 10:16:00;;;;;;;;;;;;;;;23.36;25.26;96980.77;110079;1247;59689;-71
2022/04/06 10:18:33;;;;;;;3.10;2.60;;;;;;;23.41;25.47;96977.70;110130;1248;71571;-73
2022/04/06 10:21:37;;;;;;;4.00;3.10;;;;;;;22.16;25.50;96975.29;110108;1248;69441;-72
2022/04/06 10:24:40;;;;;;;3.80;2.50;;;;;;;21.38;26.64;96971.92;109419;1255;69284;-71
2022/04/06 10:27:21;;;;;;;4.20;2.40;;;;;;;20.63;27.22;96976.77;109284;1256;59849;-64
2022/04/06 10:30:10;;;;;;;3.10;2.40;;;;;;;20.03;28.10;96969.76;109545;1255;59653;-68
2022/04/06 10:32:40;;;;;;;2.40;2.00;;;;;;;20.33;29.27;96967.88;109519;1254;71690;-66
2022/04/06 10:35:33;;;;;;;2.90;2.40;;;;;;;21.19;28.82;96970.45;109565;1256;69567;-63
2022/04/06 10:38:02;;;;;;;2.70;2.20;;;;;;;22.03;27.18;96973.98;109501;1254;69488;-65
2022/04/06 10:40:46;;;;;;;3.30;2.10;;;;;;;23.24;26.61;96971.58;109504;1255;59774;-66
2022/04/06 10:43:34;;;;;;;3.30;1.90;;;;;;;23.88;25.73;96970.08;109526;1254;59700;-65
2022/04/06 10:46:07;;;;;;;2.90;2.00;;;;;;;24.15;24.64;96964.37;109495;1256;72136;-63
2022/04/06 10:49:15;;;;;;;2.90;2.40;;;;;;;23.90;24.54;96971.55;109544;1254;69736;-62
2022/04/06 10:51:50;;;;;;;2.40;1.60;;;;;;;23.98;25.19;96964.45;109482;1256;68932;-67
2022/04/06 10:54:19;;;;;;;3.10;2.30;;;;;;;24.23;24.62;96961.82;109497;1254;59783;-63
2022/04/06 10:56:53;;;;;;;4.10;2.80;;;;;;;24.49;24.26;96954.99;109412;1256;59861;-63
2022/04/06 10:59:23;;;;;;;4.90;2.00;;;;;;;24.86;23.52;96957.91;109449;1257;71574;-66
2022/04/06 11:02:19;;;;;;;3.10;2.10;;;;;;;24.75;24.07;96958.20;109805;1250;69736;-63
2022/04/06 11:04:50;;;;;;;2.70;2.00;;;;;;;25.19;23.03;96957.98;109760;1251;69895;-72
2022/04/06 11:10:28;;;;;;;2.60;1.70;;;;;;;24.27;24.37;96961.45;110016;1250;59702;-71
2022/04/06 11:13:04;;;;;;;3.90;1.90;;;;;;;24.55;23.53;96959.14;109816;1247;71611;-65
2022/04/06 11:15:40;;;;;;;2.30;1.80;;;;;;;23.99;23.46;96964.52;109989;1251;69328;-66
2022/04/06 11:18:47;;;;;;;2.50;1.90;;;;;;;22.63;25.73;96954.80;109799;1250;68683;-68
2022/04/06 11:21:17;;;;;;;2.20;1.70;;;;;;;22.11;25.99;96956.13;109938;1248;59732;-66
2022/04/06 11:23:46;;;;;;;2.60;1.80;;;;;;;21.64;27.00;96955.96;110014;1248;59674;-64
2022/04/06 11:26:15;;;;;;;2.60;1.80;;;;;;;21.31;26.98;96956.09;109964;1250;70732;-68
2022/04/06 11:28:44;;;;;;;;;;;;;;;20.89;27.54;96949.97;110018;1248;69440;-64
2022/04/06 11:31:14;;;;;;;2.60;1.60;;;;;;;20.82;28.05;96947.05;110041;1248;69451;-64
2022/04/06 11:33:44;;;;;;;3.50;2.30;;;;;;;20.28;29.62;96943.07;110084;1250;59750;-65
2022/04/06 11:36:16;;;;;;;3.50;2.20;;;;;;;20.21;29.55;96936.88;110065;1247;59657;-69
2022/04/06 11:38:49;;;;;;;3.70;2.10;;;;;;;19.86;29.99;96936.96;110073;1248;71559;-68
2022/04/06 11:41:19;;;;;;;4.10;2.00;;;;;;;19.98;29.60;96934.69;110004;1248;69385;-67
2022/04/06 11:43:53;;;;;;;6.20;2.30;;;;;;;20.20;29.19;96928.14;109874;1248;68635;-67
2022/04/06 11:46:22;;;;;;;2.50;2.10;;;;;;;19.98;29.64;96924.40;110028;1248;59689;-67
2022/04/06 11:48:52;;;;;;;2.00;1.70;;;;;;;20.30;29.30;96924.11;110032;1250;59675;-65
2022/04/06 11:51:21;;;;;;;2.10;1.70;;;;;;;20.75;28.85;96917.81;110066;1248;70776;-70
2022/04/06 11:53:53;;;;;;;2.50;1.80;;;;;;;21.12;27.90;96918.90;110018;1248;68806;-65
2022/04/06 11:56:22;;;;;;;2.90;2.20;;;;;;;20.86;28.16;96916.05;110020;1247;69522;-66